sensor_id;sensor_type;location;lat;lon;timestamp;P1;durP1;ratioP1;P2;durP2;ratioP2
2406;SDS011;37709;53.480;9.688;2022-10-16T00:01:22;8.07;;;7.27;;
2406;SDS011;37709;53.480;9.688;2022-10-16T00:03:51;8.90;;;8.00;;
2406;SDS011;37709;53.480;9.688;2022-10-16T00:06:20;9.40;;;7.87;;
2406;SDS011;37709;53.480;9.688;2022-10-16T00:08:48;9.03;;;7.57;;
2406;SDS011;37709;53.480;9.688;2022-10-16T00:11:20;9.80;;;7.70;;
2406;SDS011;37709;53.480;9.688;2022-10-16T00:13:50;8.80;;;6.50;;
2406;SDS011;37709;53.480;9.688;2022-10-16T00:16:19;9.30;;;6.50;;
2406;SDS011;37709;53.480;9.688;2022-10-16T00:18:47;7.70;;;5.90;;
2406;SDS011;37709;53.480;9.688;2022-10-16T00:21:18;5.80;;;5.30;;
2406;SDS011;37709;53.480;9.688;2022-10-16T00:24:07;7.00;;;5.23;;
2406;SDS011;37709;53.480;9.688;2022-10-16T00:26:35;6.17;;;5.07;;
2406;SDS011;37709;53.480;9.688;2022-10-16T00:29:04;5.40;;;4.90;;
2406;SDS011;37709;53.480;9.688;2022-10-16T00:31:32;8.00;;;4.87;;
2406;SDS011;37709;53.480;9.688;2022-10-16T00:34:01;5.70;;;5.00;;
2406;SDS011;37709;53.480;9.688;2022-10-16T00:36:28;7.10;;;5.30;;
2406;SDS011;37709;53.480;9.688;2022-10-16T00:38:56;5.97;;;5.17;;
2406;SDS011;37709;53.480;9.688;2022-10-16T00:41:32;8.03;;;5.53;;
2406;SDS011;37709;53.480;9.688;2022-10-16T00:44:01;5.50;;;5.00;;
2406;SDS011;37709;53.480;9.688;2022-10-16T00:46:49;6.70;;;4.80;;
2406;SDS011;37709;53.480;9.688;2022-10-16T00:49:18;7.00;;;5.20;;
2406;SDS011;37709;53.480;9.688;2022-10-16T00:51:47;6.80;;;5.20;;
2406;SDS011;37709;53.480;9.688;2022-10-16T00:54:21;6.40;;;4.60;;
2406;SDS011;37709;53.480;9.688;2022-10-16T00:56:51;5.97;;;5.10;;
2406;SDS011;37709;53.480;9.688;2022-10-16T00:59:28;5.60;;;5.13;;
2406;SDS011;37709;53.480;9.688;2022-10-16T01:02:08;5.23;;;4.07;;
2406;SDS011;37709;53.480;9.688;2022-10-16T01:04:40;6.93;;;3.80;;
2406;SDS011;37709;53.480;9.688;2022-10-16T01:07:20;5.30;;;4.07;;
2406;SDS011;37709;53.480;9.688;2022-10-16T01:12:50;3.80;;;3.40;;
2406;SDS011;37709;53.480;9.688;2022-10-16T01:15:32;4.80;;;3.27;;
2406;SDS011;37709;53.480;9.688;2022-10-16T01:18:23;3.20;;;2.90;;
2406;SDS011;37709;53.480;9.688;2022-10-16T01:21:02;4.97;;;3.10;;
2406;SDS011;37709;53.480;9.688;2022-10-16T01:29:01;5.17;;;3.00;;
2406;SDS011;37709;53.480;9.688;2022-10-16T01:31:56;4.73;;;3.10;;
2406;SDS011;37709;53.480;9.688;2022-10-16T01:34:31;3.03;;;2.33;;
2406;SDS011;37709;53.480;9.688;2022-10-16T01:37:04;4.23;;;2.20;;
2406;SDS011;37709;53.480;9.688;2022-10-16T01:39:35;5.00;;;2.90;;
2406;SDS011;37709;53.480;9.688;2022-10-16T01:42:08;3.00;;;2.73;;
2406;SDS011;37709;53.480;9.688;2022-10-16T01:44:43;4.03;;;2.57;;
2406;SDS011;37709;53.480;9.688;2022-10-16T01:47:14;4.90;;;2.60;;
2406;SDS011;37709;53.480;9.688;2022-10-16T01:49:44;4.70;;;2.67;;
2406;SDS011;37709;53.480;9.688;2022-10-16T01:52:14;3.83;;;2.27;;
2406;SDS011;37709;53.480;9.688;2022-10-16T01:54:47;4.13;;;2.50;;
2406;SDS011;37709;53.480;9.688;2022-10-16T01:57:16;3.73;;;2.13;;
2406;SDS011;37709;53.480;9.688;2022-10-16T01:59:50;4.43;;;2.60;;
2406;SDS011;37709;53.480;9.688;2022-10-16T02:02:21;4.23;;;2.10;;
2406;SDS011;37709;53.480;9.688;2022-10-16T02:04:58;2.10;;;1.90;;
2406;SDS011;37709;53.480;9.688;2022-10-16T02:07:53;3.43;;;2.30;;
2406;SDS011;37709;53.480;9.688;2022-10-16T02:10:21;4.60;;;2.33;;
2406;SDS011;37709;53.480;9.688;2022-10-16T02:12:59;6.27;;;2.43;;
2406;SDS011;37709;53.480;9.688;2022-10-16T02:15:32;2.20;;;1.83;;
2406;SDS011;37709;53.480;9.688;2022-10-16T02:17:59;2.67;;;2.03;;
2406;SDS011;37709;53.480;9.688;2022-10-16T02:20:28;3.13;;;1.90;;
2406;SDS011;37709;53.480;9.688;2022-10-16T02:23:03;3.07;;;1.87;;
2406;SDS011;37709;53.480;9.688;2022-10-16T02:25:32;4.97;;;2.40;;
2406;SDS011;37709;53.480;9.688;2022-10-16T02:28:06;3.47;;;1.80;;
2406;SDS011;37709;53.480;9.688;2022-10-16T02:30:45;2.93;;;2.03;;
2406;SDS011;37709;53.480;9.688;2022-10-16T02:33:24;3.37;;;1.83;;
2406;SDS011;37709;53.480;9.688;2022-10-16T02:35:53;2.13;;;1.93;;
2406;SDS011;37709;53.480;9.688;2022-10-16T02:38:22;3.33;;;1.93;;
2406;SDS011;37709;53.480;9.688;2022-10-16T02:40:51;7.33;;;2.13;;
2406;SDS011;37709;53.480;9.688;2022-10-16T02:43:19;1.77;;;1.60;;
2406;SDS011;37709;53.480;9.688;2022-10-16T02:45:46;2.93;;;2.10;;
2406;SDS011;37709;53.480;9.688;2022-10-16T02:48:14;5.83;;;1.97;;
2406;SDS011;37709;53.480;9.688;2022-10-16T02:50:41;3.30;;;1.90;;
2406;SDS011;37709;53.480;9.688;2022-10-16T02:53:09;3.17;;;1.87;;
2406;SDS011;37709;53.480;9.688;2022-10-16T02:55:36;3.93;;;2.10;;
2406;SDS011;37709;53.480;9.688;2022-10-16T02:58:05;3.30;;;1.90;;
2406;SDS011;37709;53.480;9.688;2022-10-16T03:00:33;3.97;;;2.80;;
2406;SDS011;37709;53.480;9.688;2022-10-16T03:03:00;2.93;;;2.23;;
2406;SDS011;37709;53.480;9.688;2022-10-16T03:05:29;4.80;;;2.60;;
2406;SDS011;37709;53.480;9.688;2022-10-16T03:07:57;2.40;;;1.73;;
2406;SDS011;37709;53.480;9.688;2022-10-16T03:10:27;3.10;;;2.10;;
2406;SDS011;37709;53.480;9.688;2022-10-16T03:12:54;4.97;;;2.33;;
2406;SDS011;37709;53.480;9.688;2022-10-16T03:15:21;2.33;;;2.10;;
2406;SDS011;37709;53.480;9.688;2022-10-16T03:17:49;2.20;;;2.00;;
2406;SDS011;37709;53.480;9.688;2022-10-16T03:20:16;4.07;;;1.87;;
2406;SDS011;37709;53.480;9.688;2022-10-16T03:22:43;3.20;;;1.83;;
2406;SDS011;37709;53.480;9.688;2022-10-16T03:25:12;4.23;;;2.30;;
2406;SDS011;37709;53.480;9.688;2022-10-16T03:27:40;3.30;;;2.23;;
2406;SDS011;37709;53.480;9.688;2022-10-16T03:30:07;3.93;;;2.40;;
2406;SDS011;37709;53.480;9.688;2022-10-16T03:32:35;6.03;;;2.30;;
2406;SDS011;37709;53.480;9.688;2022-10-16T03:35:03;2.50;;;1.97;;
2406;SDS011;37709;53.480;9.688;2022-10-16T03:37:31;3.70;;;2.53;;
2406;SDS011;37709;53.480;9.688;2022-10-16T03:39:58;2.13;;;1.93;;
2406;SDS011;37709;53.480;9.688;2022-10-16T03:42:26;3.20;;;1.97;;
2406;SDS011;37709;53.480;9.688;2022-10-16T03:44:53;3.60;;;2.20;;
2406;SDS011;37709;53.480;9.688;2022-10-16T03:47:20;4.93;;;2.33;;
2406;SDS011;37709;53.480;9.688;2022-10-16T03:49:50;2.93;;;2.13;;
2406;SDS011;37709;53.480;9.688;2022-10-16T03:52:17;5.87;;;2.00;;
2406;SDS011;37709;53.480;9.688;2022-10-16T03:54:49;4.37;;;2.30;;
2406;SDS011;37709;53.480;9.688;2022-10-16T03:57:17;3.53;;;1.80;;
2406;SDS011;37709;53.480;9.688;2022-10-16T03:59:44;2.80;;;1.80;;
2406;SDS011;37709;53.480;9.688;2022-10-16T04:02:12;4.10;;;2.20;;
2406;SDS011;37709;53.480;9.688;2022-10-16T04:04:40;6.73;;;2.60;;
2406;SDS011;37709;53.480;9.688;2022-10-16T04:07:07;2.53;;;2.33;;
2406;SDS011;37709;53.480;9.688;2022-10-16T04:09:37;3.17;;;1.87;;
2406;SDS011;37709;53.480;9.688;2022-10-16T04:12:04;3.60;;;2.07;;
2406;SDS011;37709;53.480;9.688;2022-10-16T04:14:32;3.90;;;2.00;;
2406;SDS011;37709;53.480;9.688;2022-10-16T04:17:00;3.67;;;2.43;;
2406;SDS011;37709;53.480;9.688;2022-10-16T04:19:28;5.70;;;2.80;;
2406;SDS011;37709;53.480;9.688;2022-10-16T04:21:55;5.13;;;2.30;;
2406;SDS011;37709;53.480;9.688;2022-10-16T04:24:23;2.10;;;1.77;;
2406;SDS011;37709;53.480;9.688;2022-10-16T04:26:50;5.53;;;2.30;;
2406;SDS011;37709;53.480;9.688;2022-10-16T04:29:17;2.37;;;2.17;;
2406;SDS011;37709;53.480;9.688;2022-10-16T04:31:45;6.47;;;2.40;;
2406;SDS011;37709;53.480;9.688;2022-10-16T04:34:14;6.17;;;2.20;;
2406;SDS011;37709;53.480;9.688;2022-10-16T04:36:41;6.33;;;2.30;;
2406;SDS011;37709;53.480;9.688;2022-10-16T04:39:08;3.23;;;2.50;;
2406;SDS011;37709;53.480;9.688;2022-10-16T04:41:36;4.03;;;2.30;;
2406;SDS011;37709;53.480;9.688;2022-10-16T04:44:04;4.83;;;2.30;;
2406;SDS011;37709;53.480;9.688;2022-10-16T04:46:31;5.23;;;3.27;;
2406;SDS011;37709;53.480;9.688;2022-10-16T04:48:59;3.77;;;2.70;;
2406;SDS011;37709;53.480;9.688;2022-10-16T04:51:27;3.63;;;2.47;;
2406;SDS011;37709;53.480;9.688;2022-10-16T04:53:54;4.07;;;3.23;;
2406;SDS011;37709;53.480;9.688;2022-10-16T04:56:22;5.00;;;2.80;;
2406;SDS011;37709;53.480;9.688;2022-10-16T04:58:50;6.13;;;3.13;;
2406;SDS011;37709;53.480;9.688;2022-10-16T05:01:17;6.83;;;3.60;;
2406;SDS011;37709;53.480;9.688;2022-10-16T05:03:45;4.33;;;3.20;;
2406;SDS011;37709;53.480;9.688;2022-10-16T05:06:13;5.00;;;3.50;;
2406;SDS011;37709;53.480;9.688;2022-10-16T05:08:40;5.57;;;3.70;;
2406;SDS011;37709;53.480;9.688;2022-10-16T05:11:07;5.93;;;3.80;;
2406;SDS011;37709;53.480;9.688;2022-10-16T05:13:35;4.43;;;3.50;;
2406;SDS011;37709;53.480;9.688;2022-10-16T05:16:02;5.83;;;4.00;;
2406;SDS011;37709;53.480;9.688;2022-10-16T05:18:30;9.60;;;4.27;;
2406;SDS011;37709;53.480;9.688;2022-10-16T05:20:57;5.33;;;3.90;;
2406;SDS011;37709;53.480;9.688;2022-10-16T05:23:25;4.90;;;4.10;;
2406;SDS011;37709;53.480;9.688;2022-10-16T05:25:53;6.90;;;4.47;;
2406;SDS011;37709;53.480;9.688;2022-10-16T05:28:21;5.00;;;4.03;;
2406;SDS011;37709;53.480;9.688;2022-10-16T05:30:49;5.80;;;4.40;;
2406;SDS011;37709;53.480;9.688;2022-10-16T05:33:16;8.23;;;4.60;;
2406;SDS011;37709;53.480;9.688;2022-10-16T05:35:44;6.50;;;4.97;;
2406;SDS011;37709;53.480;9.688;2022-10-16T05:38:11;6.03;;;4.70;;
2406;SDS011;37709;53.480;9.688;2022-10-16T05:40:39;5.37;;;4.63;;
2406;SDS011;37709;53.480;9.688;2022-10-16T05:43:06;5.57;;;4.40;;
2406;SDS011;37709;53.480;9.688;2022-10-16T05:45:33;6.13;;;4.30;;
2406;SDS011;37709;53.480;9.688;2022-10-16T05:48:01;5.50;;;4.47;;
2406;SDS011;37709;53.480;9.688;2022-10-16T05:50:29;7.40;;;4.80;;
2406;SDS011;37709;53.480;9.688;2022-10-16T05:52:56;5.43;;;4.40;;
2406;SDS011;37709;53.480;9.688;2022-10-16T05:55:25;10.00;;;4.83;;
2406;SDS011;37709;53.480;9.688;2022-10-16T05:57:54;6.13;;;4.40;;
2406;SDS011;37709;53.480;9.688;2022-10-16T06:00:21;5.70;;;4.40;;
2406;SDS011;37709;53.480;9.688;2022-10-16T06:02:48;7.10;;;4.13;;
2406;SDS011;37709;53.480;9.688;2022-10-16T06:05:17;5.63;;;3.90;;
2406;SDS011;37709;53.480;9.688;2022-10-16T06:07:44;5.77;;;4.53;;
2406;SDS011;37709;53.480;9.688;2022-10-16T06:10:11;5.57;;;3.90;;
2406;SDS011;37709;53.480;9.688;2022-10-16T06:12:39;7.90;;;4.33;;
2406;SDS011;37709;53.480;9.688;2022-10-16T06:15:06;5.87;;;3.97;;
2406;SDS011;37709;53.480;9.688;2022-10-16T06:17:34;7.50;;;4.57;;
2406;SDS011;37709;53.480;9.688;2022-10-16T06:20:02;4.93;;;4.13;;
2406;SDS011;37709;53.480;9.688;2022-10-16T06:22:30;5.07;;;4.53;;
2406;SDS011;37709;53.480;9.688;2022-10-16T06:24:58;11.40;;;4.50;;
2406;SDS011;37709;53.480;9.688;2022-10-16T06:27:26;6.57;;;4.70;;
2406;SDS011;37709;53.480;9.688;2022-10-16T06:29:54;5.20;;;4.17;;
2406;SDS011;37709;53.480;9.688;2022-10-16T06:32:21;4.03;;;3.63;;
2406;SDS011;37709;53.480;9.688;2022-10-16T06:34:49;4.80;;;4.30;;
2406;SDS011;37709;53.480;9.688;2022-10-16T06:37:16;6.03;;;4.20;;
2406;SDS011;37709;53.480;9.688;2022-10-16T06:39:44;7.13;;;4.13;;
2406;SDS011;37709;53.480;9.688;2022-10-16T06:42:11;6.90;;;4.70;;
2406;SDS011;37709;53.480;9.688;2022-10-16T06:44:40;6.83;;;4.90;;
2406;SDS011;37709;53.480;9.688;2022-10-16T06:47:07;6.50;;;5.07;;
2406;SDS011;37709;53.480;9.688;2022-10-16T06:49:35;7.40;;;4.37;;
2406;SDS011;37709;53.480;9.688;2022-10-16T06:52:02;8.77;;;4.50;;
2406;SDS011;37709;53.480;9.688;2022-10-16T06:54:30;5.37;;;4.03;;
2406;SDS011;37709;53.480;9.688;2022-10-16T06:57:08;5.83;;;4.80;;
2406;SDS011;37709;53.480;9.688;2022-10-16T06:59:35;7.07;;;4.90;;
2406;SDS011;37709;53.480;9.688;2022-10-16T07:02:02;6.53;;;5.00;;
2406;SDS011;37709;53.480;9.688;2022-10-16T07:04:30;5.43;;;4.90;;
2406;SDS011;37709;53.480;9.688;2022-10-16T07:07:00;4.90;;;4.50;;
2406;SDS011;37709;53.480;9.688;2022-10-16T07:09:30;6.63;;;4.03;;
2406;SDS011;37709;53.480;9.688;2022-10-16T07:11:58;5.30;;;4.37;;
2406;SDS011;37709;53.480;9.688;2022-10-16T07:14:25;7.30;;;4.27;;
2406;SDS011;37709;53.480;9.688;2022-10-16T07:16:53;6.23;;;3.90;;
2406;SDS011;37709;53.480;9.688;2022-10-16T07:19:20;7.07;;;4.40;;
2406;SDS011;37709;53.480;9.688;2022-10-16T07:21:48;7.70;;;4.70;;
2406;SDS011;37709;53.480;9.688;2022-10-16T07:24:16;5.20;;;4.40;;
2406;SDS011;37709;53.480;9.688;2022-10-16T07:26:45;5.30;;;3.80;;
2406;SDS011;37709;53.480;9.688;2022-10-16T07:29:14;5.90;;;3.97;;
2406;SDS011;37709;53.480;9.688;2022-10-16T07:31:47;4.03;;;3.63;;
2406;SDS011;37709;53.480;9.688;2022-10-16T07:34:16;6.23;;;4.07;;
2406;SDS011;37709;53.480;9.688;2022-10-16T07:36:47;3.57;;;3.27;;
2406;SDS011;37709;53.480;9.688;2022-10-16T07:39:17;4.63;;;4.17;;
2406;SDS011;37709;53.480;9.688;2022-10-16T07:41:45;3.73;;;3.43;;
2406;SDS011;37709;53.480;9.688;2022-10-16T07:44:13;6.23;;;4.17;;
2406;SDS011;37709;53.480;9.688;2022-10-16T07:46:40;4.67;;;3.40;;
2406;SDS011;37709;53.480;9.688;2022-10-16T07:49:08;3.77;;;3.37;;
2406;SDS011;37709;53.480;9.688;2022-10-16T07:51:35;6.20;;;3.10;;
2406;SDS011;37709;53.480;9.688;2022-10-16T07:54:05;4.30;;;3.20;;
2406;SDS011;37709;53.480;9.688;2022-10-16T07:56:32;4.23;;;3.83;;
2406;SDS011;37709;53.480;9.688;2022-10-16T07:58:59;4.90;;;3.20;;
2406;SDS011;37709;53.480;9.688;2022-10-16T08:01:27;5.33;;;3.20;;
2406;SDS011;37709;53.480;9.688;2022-10-16T08:03:54;6.80;;;3.43;;
2406;SDS011;37709;53.480;9.688;2022-10-16T08:06:22;4.03;;;3.33;;
2406;SDS011;37709;53.480;9.688;2022-10-16T08:08:54;3.50;;;3.20;;
2406;SDS011;37709;53.480;9.688;2022-10-16T08:11:23;6.33;;;3.73;;
2406;SDS011;37709;53.480;9.688;2022-10-16T08:13:51;6.07;;;3.17;;
2406;SDS011;37709;53.480;9.688;2022-10-16T08:16:18;4.80;;;3.10;;
2406;SDS011;37709;53.480;9.688;2022-10-16T08:18:46;6.23;;;3.00;;
2406;SDS011;37709;53.480;9.688;2022-10-16T08:21:15;3.20;;;2.90;;
2406;SDS011;37709;53.480;9.688;2022-10-16T08:23:47;4.07;;;3.03;;
2406;SDS011;37709;53.480;9.688;2022-10-16T08:26:24;3.83;;;3.03;;
2406;SDS011;37709;53.480;9.688;2022-10-16T08:28:53;4.00;;;3.03;;
2406;SDS011;37709;53.480;9.688;2022-10-16T08:31:21;3.80;;;2.73;;
2406;SDS011;37709;53.480;9.688;2022-10-16T08:33:49;3.30;;;3.03;;
2406;SDS011;37709;53.480;9.688;2022-10-16T08:36:18;3.50;;;2.50;;
2406;SDS011;37709;53.480;9.688;2022-10-16T08:38:49;3.50;;;3.30;;
2406;SDS011;37709;53.480;9.688;2022-10-16T08:41:41;3.10;;;2.80;;
2406;SDS011;37709;53.480;9.688;2022-10-16T08:52:29;2.53;;;2.30;;
2406;SDS011;37709;53.480;9.688;2022-10-16T08:55:00;2.40;;;2.20;;
2406;SDS011;37709;53.480;9.688;2022-10-16T08:57:29;5.17;;;2.47;;
2406;SDS011;37709;53.480;9.688;2022-10-16T09:00:00;4.03;;;2.20;;
2406;SDS011;37709;53.480;9.688;2022-10-16T09:02:40;3.17;;;2.10;;
2406;SDS011;37709;53.480;9.688;2022-10-16T09:05:41;2.47;;;2.20;;
2406;SDS011;37709;53.480;9.688;2022-10-16T09:10:46;2.50;;;1.80;;
2406;SDS011;37709;53.480;9.688;2022-10-16T09:13:38;2.47;;;1.93;;
2406;SDS011;37709;53.480;9.688;2022-10-16T09:16:28;2.00;;;1.73;;
2406;SDS011;37709;53.480;9.688;2022-10-16T09:19:05;2.70;;;1.70;;
2406;SDS011;37709;53.480;9.688;2022-10-16T09:21:37;3.90;;;2.17;;
2406;SDS011;37709;53.480;9.688;2022-10-16T09:24:15;2.50;;;1.50;;
2406;SDS011;37709;53.480;9.688;2022-10-16T09:26:52;2.77;;;1.87;;
2406;SDS011;37709;53.480;9.688;2022-10-16T09:29:20;1.53;;;1.43;;
2406;SDS011;37709;53.480;9.688;2022-10-16T09:31:50;2.70;;;1.53;;
2406;SDS011;37709;53.480;9.688;2022-10-16T09:34:28;1.40;;;1.30;;
2406;SDS011;37709;53.480;9.688;2022-10-16T09:37:00;2.30;;;1.30;;
2406;SDS011;37709;53.480;9.688;2022-10-16T09:39:30;2.27;;;1.50;;
2406;SDS011;37709;53.480;9.688;2022-10-16T09:42:18;2.43;;;1.40;;
2406;SDS011;37709;53.480;9.688;2022-10-16T09:44:48;3.00;;;1.60;;
2406;SDS011;37709;53.480;9.688;2022-10-16T09:50:19;3.20;;;1.30;;
2406;SDS011;37709;53.480;9.688;2022-10-16T09:52:48;2.40;;;1.20;;
2406;SDS011;37709;53.480;9.688;2022-10-16T09:55:17;3.57;;;1.03;;
2406;SDS011;37709;53.480;9.688;2022-10-16T09:57:51;2.90;;;1.73;;
2406;SDS011;37709;53.480;9.688;2022-10-16T10:00:20;3.97;;;1.60;;
2406;SDS011;37709;53.480;9.688;2022-10-16T10:02:50;2.00;;;1.77;;
2406;SDS011;37709;53.480;9.688;2022-10-16T10:08:00;2.67;;;1.60;;
2406;SDS011;37709;53.480;9.688;2022-10-16T10:10:36;1.63;;;1.20;;
2406;SDS011;37709;53.480;9.688;2022-10-16T10:13:21;2.50;;;1.37;;
2406;SDS011;37709;53.480;9.688;2022-10-16T10:15:51;2.30;;;1.37;;
2406;SDS011;37709;53.480;9.688;2022-10-16T10:18:20;2.73;;;1.63;;
2406;SDS011;37709;53.480;9.688;2022-10-16T10:20:57;2.10;;;1.23;;
2406;SDS011;37709;53.480;9.688;2022-10-16T10:23:27;2.03;;;1.13;;
2406;SDS011;37709;53.480;9.688;2022-10-16T10:31:49;2.30;;;1.20;;
2406;SDS011;37709;53.480;9.688;2022-10-16T10:37:04;3.27;;;1.00;;
2406;SDS011;37709;53.480;9.688;2022-10-16T10:43:04;3.07;;;1.03;;
2406;SDS011;37709;53.480;9.688;2022-10-16T10:46:02;2.20;;;1.00;;
2406;SDS011;37709;53.480;9.688;2022-10-16T10:51:07;4.63;;;1.20;;
2406;SDS011;37709;53.480;9.688;2022-10-16T10:56:43;3.20;;;0.73;;
2406;SDS011;37709;53.480;9.688;2022-10-16T10:59:37;2.13;;;0.93;;
2406;SDS011;37709;53.480;9.688;2022-10-16T11:02:34;2.40;;;0.77;;
2406;SDS011;37709;53.480;9.688;2022-10-16T11:05:43;2.37;;;1.00;;
2406;SDS011;37709;53.480;9.688;2022-10-16T11:08:16;2.67;;;1.10;;
2406;SDS011;37709;53.480;9.688;2022-10-16T11:10:52;3.73;;;0.90;;
2406;SDS011;37709;53.480;9.688;2022-10-16T11:16:23;3.50;;;1.00;;
2406;SDS011;37709;53.480;9.688;2022-10-16T11:22:00;2.10;;;0.97;;
2406;SDS011;37709;53.480;9.688;2022-10-16T11:24:59;5.60;;;1.40;;
2406;SDS011;37709;53.480;9.688;2022-10-16T11:27:47;3.40;;;1.00;;
2406;SDS011;37709;53.480;9.688;2022-10-16T11:30:18;2.80;;;1.08;;
2406;SDS011;37709;53.480;9.688;2022-10-16T11:35:43;3.20;;;1.00;;
2406;SDS011;37709;53.480;9.688;2022-10-16T11:38:26;2.80;;;0.83;;
2406;SDS011;37709;53.480;9.688;2022-10-16T11:41:24;3.97;;;1.20;;
2406;SDS011;37709;53.480;9.688;2022-10-16T11:44:26;2.10;;;0.87;;
2406;SDS011;37709;53.480;9.688;2022-10-16T11:47:24;1.80;;;0.80;;
2406;SDS011;37709;53.480;9.688;2022-10-16T11:56:01;3.20;;;0.93;;
2406;SDS011;37709;53.480;9.688;2022-10-16T12:01:22;2.83;;;1.53;;
2406;SDS011;37709;53.480;9.688;2022-10-16T12:04:05;6.07;;;1.17;;
2406;SDS011;37709;53.480;9.688;2022-10-16T12:07:18;4.40;;;1.00;;
2406;SDS011;37709;53.480;9.688;2022-10-16T12:09:55;1.63;;;0.80;;
2406;SDS011;37709;53.480;9.688;2022-10-16T12:15:19;2.97;;;1.40;;
2406;SDS011;37709;53.480;9.688;2022-10-16T12:18:21;2.63;;;0.90;;
2406;SDS011;37709;53.480;9.688;2022-10-16T12:20:57;5.00;;;1.27;;
2406;SDS011;37709;53.480;9.688;2022-10-16T12:23:26;4.40;;;1.00;;
2406;SDS011;37709;53.480;9.688;2022-10-16T12:25:55;3.63;;;0.90;;
2406;SDS011;37709;53.480;9.688;2022-10-16T12:28:27;3.97;;;1.30;;
2406;SDS011;37709;53.480;9.688;2022-10-16T12:30:58;3.87;;;1.17;;
2406;SDS011;37709;53.480;9.688;2022-10-16T12:33:35;2.60;;;0.90;;
2406;SDS011;37709;53.480;9.688;2022-10-16T12:36:10;2.97;;;1.03;;
2406;SDS011;37709;53.480;9.688;2022-10-16T12:38:53;2.80;;;1.00;;
2406;SDS011;37709;53.480;9.688;2022-10-16T12:41:25;1.53;;;0.93;;
2406;SDS011;37709;53.480;9.688;2022-10-16T12:43:55;2.50;;;0.97;;
2406;SDS011;37709;53.480;9.688;2022-10-16T12:51:41;3.43;;;0.90;;
2406;SDS011;37709;53.480;9.688;2022-10-16T13:05:47;4.83;;;0.90;;
2406;SDS011;37709;53.480;9.688;2022-10-16T13:16:58;3.97;;;1.00;;
2406;SDS011;37709;53.480;9.688;2022-10-16T13:19:38;2.53;;;0.77;;
2406;SDS011;37709;53.480;9.688;2022-10-16T13:22:29;5.00;;;1.20;;
2406;SDS011;37709;53.480;9.688;2022-10-16T13:25:13;1.53;;;1.20;;
2406;SDS011;37709;53.480;9.688;2022-10-16T13:28:04;6.63;;;1.17;;
2406;SDS011;37709;53.480;9.688;2022-10-16T13:30:39;3.03;;;1.37;;
2406;SDS011;37709;53.480;9.688;2022-10-16T13:35:52;1.60;;;0.70;;
2406;SDS011;37709;53.480;9.688;2022-10-16T13:38:22;2.00;;;1.00;;
2406;SDS011;37709;53.480;9.688;2022-10-16T13:43:34;4.07;;;0.80;;
2406;SDS011;37709;53.480;9.688;2022-10-16T13:48:40;3.40;;;1.10;;
2406;SDS011;37709;53.480;9.688;2022-10-16T13:51:15;3.87;;;1.00;;
2406;SDS011;37709;53.480;9.688;2022-10-16T13:53:45;5.33;;;1.23;;
2406;SDS011;37709;53.480;9.688;2022-10-16T13:56:14;2.03;;;1.30;;
2406;SDS011;37709;53.480;9.688;2022-10-16T13:58:44;3.20;;;0.70;;
2406;SDS011;37709;53.480;9.688;2022-10-16T14:01:19;1.83;;;0.87;;
2406;SDS011;37709;53.480;9.688;2022-10-16T14:04:05;3.50;;;1.20;;
2406;SDS011;37709;53.480;9.688;2022-10-16T14:06:35;3.50;;;1.13;;
2406;SDS011;37709;53.480;9.688;2022-10-16T14:12:01;3.50;;;1.40;;
2406;SDS011;37709;53.480;9.688;2022-10-16T14:14:39;2.40;;;0.97;;
2406;SDS011;37709;53.480;9.688;2022-10-16T14:17:16;2.10;;;0.90;;
2406;SDS011;37709;53.480;9.688;2022-10-16T14:19:48;5.10;;;1.43;;
2406;SDS011;37709;53.480;9.688;2022-10-16T14:22:36;3.30;;;1.47;;
2406;SDS011;37709;53.480;9.688;2022-10-16T14:25:26;2.23;;;0.67;;
2406;SDS011;37709;53.480;9.688;2022-10-16T14:28:31;3.47;;;1.53;;
2406;SDS011;37709;53.480;9.688;2022-10-16T14:30:55;3.20;;;1.10;;
2406;SDS011;37709;53.480;9.688;2022-10-16T14:36:06;4.60;;;1.43;;
2406;SDS011;37709;53.480;9.688;2022-10-16T14:38:43;4.00;;;1.00;;
2406;SDS011;37709;53.480;9.688;2022-10-16T14:41:24;2.57;;;1.33;;
2406;SDS011;37709;53.480;9.688;2022-10-16T14:43:56;2.70;;;1.07;;
2406;SDS011;37709;53.480;9.688;2022-10-16T14:46:33;3.13;;;1.23;;
2406;SDS011;37709;53.480;9.688;2022-10-16T14:49:05;3.00;;;1.03;;
2406;SDS011;37709;53.480;9.688;2022-10-16T14:51:47;4.20;;;1.10;;
2406;SDS011;37709;53.480;9.688;2022-10-16T14:54:16;4.97;;;1.10;;
2406;SDS011;37709;53.480;9.688;2022-10-16T14:56:46;5.03;;;0.97;;
2406;SDS011;37709;53.480;9.688;2022-10-16T14:59:18;4.07;;;1.10;;
2406;SDS011;37709;53.480;9.688;2022-10-16T15:01:50;3.37;;;1.33;;
2406;SDS011;37709;53.480;9.688;2022-10-16T15:04:18;3.37;;;1.33;;
2406;SDS011;37709;53.480;9.688;2022-10-16T15:06:46;3.40;;;1.33;;
2406;SDS011;37709;53.480;9.688;2022-10-16T15:09:14;2.40;;;1.17;;
2406;SDS011;37709;53.480;9.688;2022-10-16T15:11:42;3.40;;;1.10;;
2406;SDS011;37709;53.480;9.688;2022-10-16T15:14:13;3.07;;;1.07;;
2406;SDS011;37709;53.480;9.688;2022-10-16T15:16:41;3.27;;;1.03;;
2406;SDS011;37709;53.480;9.688;2022-10-16T15:19:09;2.43;;;0.93;;
2406;SDS011;37709;53.480;9.688;2022-10-16T15:21:36;4.00;;;1.30;;
2406;SDS011;37709;53.480;9.688;2022-10-16T15:24:05;2.87;;;1.00;;
2406;SDS011;37709;53.480;9.688;2022-10-16T15:26:46;2.33;;;1.03;;
2406;SDS011;37709;53.480;9.688;2022-10-16T15:29:15;4.33;;;1.20;;
2406;SDS011;37709;53.480;9.688;2022-10-16T15:31:43;5.60;;;1.60;;
2406;SDS011;37709;53.480;9.688;2022-10-16T15:34:12;3.57;;;1.10;;
2406;SDS011;37709;53.480;9.688;2022-10-16T15:36:40;4.83;;;1.27;;
2406;SDS011;37709;53.480;9.688;2022-10-16T15:39:12;2.30;;;1.30;;
2406;SDS011;37709;53.480;9.688;2022-10-16T15:41:44;6.30;;;1.30;;
2406;SDS011;37709;53.480;9.688;2022-10-16T15:44:18;2.80;;;1.70;;
2406;SDS011;37709;53.480;9.688;2022-10-16T15:46:47;3.97;;;1.40;;
2406;SDS011;37709;53.480;9.688;2022-10-16T15:49:16;2.10;;;1.00;;
2406;SDS011;37709;53.480;9.688;2022-10-16T15:51:43;4.53;;;1.10;;
2406;SDS011;37709;53.480;9.688;2022-10-16T15:54:11;2.40;;;1.30;;
2406;SDS011;37709;53.480;9.688;2022-10-16T15:56:39;7.20;;;3.80;;
2406;SDS011;37709;53.480;9.688;2022-10-16T15:59:07;4.40;;;2.93;;
2406;SDS011;37709;53.480;9.688;2022-10-16T16:01:35;4.20;;;2.50;;
2406;SDS011;37709;53.480;9.688;2022-10-16T16:04:03;4.40;;;1.50;;
2406;SDS011;37709;53.480;9.688;2022-10-16T16:09:39;3.23;;;1.60;;
2406;SDS011;37709;53.480;9.688;2022-10-16T16:12:08;6.07;;;1.70;;
2406;SDS011;37709;53.480;9.688;2022-10-16T16:14:35;2.53;;;1.30;;
2406;SDS011;37709;53.480;9.688;2022-10-16T16:17:04;5.63;;;1.60;;
2406;SDS011;37709;53.480;9.688;2022-10-16T16:19:32;7.77;;;1.90;;
2406;SDS011;37709;53.480;9.688;2022-10-16T16:22:00;5.13;;;2.63;;
2406;SDS011;37709;53.480;9.688;2022-10-16T16:24:30;2.57;;;1.47;;
2406;SDS011;37709;53.480;9.688;2022-10-16T16:26:57;3.40;;;1.60;;
2406;SDS011;37709;53.480;9.688;2022-10-16T16:29:26;4.60;;;1.90;;
2406;SDS011;37709;53.480;9.688;2022-10-16T16:31:53;4.43;;;1.93;;
2406;SDS011;37709;53.480;9.688;2022-10-16T16:34:25;3.63;;;1.90;;
2406;SDS011;37709;53.480;9.688;2022-10-16T16:36:54;5.10;;;1.77;;
2406;SDS011;37709;53.480;9.688;2022-10-16T16:39:22;4.73;;;2.13;;
2406;SDS011;37709;53.480;9.688;2022-10-16T16:41:51;5.13;;;2.30;;
2406;SDS011;37709;53.480;9.688;2022-10-16T16:44:18;6.37;;;2.50;;
2406;SDS011;37709;53.480;9.688;2022-10-16T16:46:46;4.77;;;2.37;;
2406;SDS011;37709;53.480;9.688;2022-10-16T16:49:14;6.17;;;3.30;;
2406;SDS011;37709;53.480;9.688;2022-10-16T16:51:42;5.50;;;2.30;;
2406;SDS011;37709;53.480;9.688;2022-10-16T16:54:10;4.40;;;2.13;;
2406;SDS011;37709;53.480;9.688;2022-10-16T16:56:41;5.43;;;2.00;;
2406;SDS011;37709;53.480;9.688;2022-10-16T16:59:12;6.80;;;4.40;;
2406;SDS011;37709;53.480;9.688;2022-10-16T17:01:42;14.37;;;7.77;;
2406;SDS011;37709;53.480;9.688;2022-10-16T17:04:11;12.03;;;8.00;;
2406;SDS011;37709;53.480;9.688;2022-10-16T17:06:40;19.50;;;12.63;;
2406;SDS011;37709;53.480;9.688;2022-10-16T17:09:10;15.50;;;9.23;;
2406;SDS011;37709;53.480;9.688;2022-10-16T17:11:42;16.80;;;9.00;;
2406;SDS011;37709;53.480;9.688;2022-10-16T17:14:11;16.47;;;10.27;;